WetterOnline ( http://www.wetteronline.ch )

Wetter aktuell Rostock

Aktuelles Wetter: Rostock-Warnemünde (10m)

6-stündlich | Neueste Meldungen
Ortszeit Temperatur Wetter
Di, 26.03. 19:00 6.0° C wolkig
Di, 26.03. 13:00 6.8° C bewölkt
Di, 26.03. 7:00 5.2° C bewölkt
Di, 26.03. 1:00 4.7° C wolkenlos
Mo, 25.03. 19:00 6.0° C bedeckt
Mo, 25.03. 13:00 6.4° C wolkig
Mo, 25.03. 7:00 4.7° C bedeckt
Mo, 25.03. 1:00 4.3° C wolkenlos
Ortszeit Temperatur Wetter
Di, 26.03. 21:00 5.4° C leicht bewölkt
Di, 26.03. 20:40 5.4° C leicht bewölkt
Di, 26.03. 20:30 5.4° C wolkig
Di, 26.03. 20:20 5.4° C wolkig
Di, 26.03. 20:10 5.0° C wolkig
Di, 26.03. 20:00 5.5° C leicht bewölkt
Di, 26.03. 19:50 5.5° C leicht bewölkt
Di, 26.03. 19:30 5.4° C leicht bewölkt
Di, 26.03. 19:00 6.0° C wolkig
Ortszeit Relative Feuchte Sichtweite
Di, 26.03. 19:00 82% 35 km
Di, 26.03. 13:00 70% 9 km
Di, 26.03. 7:00 86% 22 km
Di, 26.03. 1:00 92% 24 km
Mo, 25.03. 19:00 89% 30 km
Mo, 25.03. 13:00 78% 8 km
Mo, 25.03. 7:00 87% 35 km
Mo, 25.03. 1:00 76% 35 km
Ortszeit Relative Feuchte Sichtweite
Di, 26.03. 21:00 83% 28 km
Di, 26.03. 20:40 82% -
Di, 26.03. 20:30 83% 40 km
Di, 26.03. 20:20 83% -
Di, 26.03. 20:10 87% -
Di, 26.03. 20:00 88% 27 km
Di, 26.03. 19:50 88% -
Di, 26.03. 19:30 86% 35 km
Di, 26.03. 19:00 82% 35 km
Ortszeit Niederschlagsmenge Niederschlagsart
Di, 26.03. 19:00 0.1 l/m2 in 12 Std. -
Di, 26.03. 13:00 0.1 l/m2 in 6 Std. Regen
Di, 26.03. 7:00 0.0 l/m2 in 12 Std. -
Di, 26.03. 1:00 0.0 l/m2 in 6 Std. -
Mo, 25.03. 19:00 0.3 l/m2 in 12 Std. Regen
Mo, 25.03. 13:00 0.1 l/m2 in 6 Std. Regen
Mo, 25.03. 7:00 1 l/m2 in 12 Std. Regen
Mo, 25.03. 1:00 0.0 l/m2 in 6 Std. -
Ortszeit Niederschlagsmenge Niederschlagsart
Di, 26.03. 21:00 0.0 l/m2 in 1 Std. -
Di, 26.03. 20:40 keine Meldung -
Di, 26.03. 20:30 0.0 l/m2 in 1 Std. -
Di, 26.03. 20:20 keine Meldung -
Di, 26.03. 20:10 keine Meldung -
Di, 26.03. 20:00 0.0 l/m2 in 1 Std. -
Di, 26.03. 19:50 keine Meldung -
Di, 26.03. 19:30 0.0 l/m2 in 1 Std. -
Di, 26.03. 19:00 0.0 l/m2 in 1 Std. -
Ortszeit Stärke Spitze Richtung
km/h Bft. km/h Grad Sektor
Di, 26.03. 19:00 11 2 18 290° W
Di, 26.03. 13:00 37 5 57 300° NW
Di, 26.03. 7:00 40 6 58 280° W
Di, 26.03. 1:00 15 3 31 260° W
Mo, 25.03. 19:00 17 3 39 320° NW
Mo, 25.03. 13:00 33 5 48 300° NW
Mo, 25.03. 7:00 37 5 56 280° W
Mo, 25.03. 1:00 13 3 35 220° SW
Ortszeit Stärke Spitze Richtung
km/h Bft. km/h Grad Sektor
Di, 26.03. 21:00 14 3 18 260° W
Di, 26.03. 20:40 13 3 - 260° W
Di, 26.03. 20:30 9 2 15 270° W
Di, 26.03. 20:20 9 2 - 270° W
Di, 26.03. 20:10 7 2 - 280° W
Di, 26.03. 20:00 13 3 19 280° W
Di, 26.03. 19:50 13 3 - 280° W
Di, 26.03. 19:30 13 3 19 280° W
Di, 26.03. 19:00 11 2 18 290° W
Ortszeit Untergrenze Bedeckung Gattung
total tief tief mittel hoch
Di, 26.03. 19:00 2700 m 7/8 3/8 - - -
Di, 26.03. 13:00 1260 m 7/8 7/8 - - -
Di, 26.03. 7:00 840 m 7/8 7/8 - - -
Di, 26.03. 1:00 - 0/8 0/8 - - -
Mo, 25.03. 19:00 690 m 8/8 8/8 - - -
Mo, 25.03. 13:00 1260 m 6/8 6/8 - - -
Mo, 25.03. 7:00 360 m 8/8 8/8 - - -
Mo, 25.03. 1:00 - 0/8 0/8 - - -
Ortszeit Bedeckungsgrad in Achtel und Wolkenuntergrenze
Di, 26.03. 21:00 2(1500m) 3(8400m)
Di, 26.03. 20:40 1(1470m) 2(7800m) 3(8400m)
Di, 26.03. 20:30 3(1470m) 7(7800m) 7(8700m)
Di, 26.03. 20:20 3(1470m) 7(7800m) 7(8700m)
Di, 26.03. 20:10 1(1170m) 6(7800m) 7(8700m)
Di, 26.03. 20:00 2(1170m) 4(9000m) 5(10500m)
Di, 26.03. 19:50 2(1170m) 4(9000m) 5(10500m)
Di, 26.03. 19:30 3(8400m) 5(9000m) 6(10500m)
Di, 26.03. 19:00 3(2700m) 7(3600m) 4(9000m)
Ortszeit Luftdruck NN (hPa) Tendenz (hPa in 3 Std.)
Di, 26.03. 19:00 1024 + 1,1
Di, 26.03. 13:00 1022 + 0,6
Di, 26.03. 7:00 1021 - 0,5
Di, 26.03. 1:00 1023 + 0,5
Mo, 25.03. 19:00 1020 + 3,9
Mo, 25.03. 13:00 1013 + 2,2
Mo, 25.03. 7:00 1010 - 0,6
Mo, 25.03. 1:00 1015 - 3,8
Ortszeit Luftdruck NN (hPa) Tendenz (hPa in 3 Std.)
Di, 26.03. 21:00 1025 + 1,4
Di, 26.03. 20:40 1025 keine Meldung
Di, 26.03. 20:30 1025 + 1,1
Di, 26.03. 20:20 1025 keine Meldung
Di, 26.03. 20:10 1025 keine Meldung
Di, 26.03. 20:00 1025 + 1,3
Di, 26.03. 19:50 1025 keine Meldung
Di, 26.03. 19:30 1025 + 1,2
Di, 26.03. 19:00 1024 + 1,1
Ortszeit Schneehöhe (cm)
Di, 26.03. 19:00 0
Di, 26.03. 13:00 0
Di, 26.03. 7:00 0
Di, 26.03. 1:00 0
Mo, 25.03. 19:00 0
Mo, 25.03. 13:00 0
Mo, 25.03. 7:00 0
Mo, 25.03. 1:00 0
Ortszeit Schneehöhe (cm)
Di, 26.03. 21:00 0
Di, 26.03. 20:40 0
Di, 26.03. 20:30 0
Di, 26.03. 20:20 0
Di, 26.03. 20:10 0
Di, 26.03. 20:00 0
Di, 26.03. 19:50 0
Di, 26.03. 19:30 0
Di, 26.03. 19:00 0
Link zu dieser Seite / Seite empfehlen

Das Wetter in ...